createdAt,value
2022-11-21T00:02:20.458Z,3.13
2022-11-21T00:04:48.716Z,3.55
2022-11-21T00:07:16.846Z,3.30
2022-11-21T00:09:44.973Z,3.03
2022-11-21T00:12:13.420Z,3.50
2022-11-21T00:14:41.705Z,3.47
2022-11-21T00:17:11.525Z,3.38
2022-11-21T00:19:40.107Z,3.40
2022-11-21T00:22:08.223Z,3.10
2022-11-21T00:24:36.374Z,3.47
2022-11-21T00:27:04.994Z,3.03
2022-11-21T00:29:33.087Z,2.92
2022-11-21T00:32:01.463Z,3.10
2022-11-21T00:34:31.224Z,3.22
2022-11-21T00:36:59.416Z,3.03
2022-11-21T00:39:27.556Z,3.13
2022-11-21T00:41:56.055Z,2.80
2022-11-21T00:44:24.306Z,3.08
2022-11-21T00:46:52.610Z,2.90
2022-11-21T00:49:21.064Z,3.28
2022-11-21T00:51:50.541Z,3.17
2022-11-21T00:54:18.637Z,3.60
2022-11-21T00:56:46.975Z,2.85
2022-11-21T00:59:15.110Z,2.65
2022-11-21T01:01:43.440Z,2.58
2022-11-21T01:04:11.981Z,3.20
2022-11-21T01:06:40.147Z,2.70
2022-11-21T01:09:09.637Z,2.45
2022-11-21T01:11:38.276Z,2.60
2022-11-21T01:14:06.411Z,2.40
2022-11-21T01:16:34.686Z,2.67
2022-11-21T01:19:03.864Z,2.30
2022-11-21T01:21:33.249Z,2.65
2022-11-21T01:24:02.772Z,2.08
2022-11-21T01:26:34.282Z,2.10
2022-11-21T01:29:02.346Z,2.30
2022-11-21T01:31:31.439Z,2.20
2022-11-21T01:34:01.494Z,1.92
2022-11-21T01:36:31.173Z,1.83
2022-11-21T01:39:01.288Z,2.03
2022-11-21T01:41:34.078Z,2.20
2022-11-21T01:44:02.694Z,2.50
2022-11-21T01:46:31.229Z,2.08
2022-11-21T01:49:04.255Z,2.13
2022-11-21T01:51:35.181Z,2.25
2022-11-21T01:54:09.259Z,2.20
2022-11-21T01:56:43.834Z,2.13
2022-11-21T01:59:18.347Z,2.08
2022-11-21T02:01:48.106Z,2.42
2022-11-21T02:04:16.714Z,2.03
2022-11-21T02:06:45.346Z,2.22
2022-11-21T02:09:14.165Z,2.08
2022-11-21T02:11:49.157Z,2.20
2022-11-21T02:14:17.710Z,2.40
2022-11-21T02:16:45.970Z,1.83
2022-11-21T02:19:25.146Z,2.28
2022-11-21T02:22:00.256Z,2.10
2022-11-21T02:24:35.182Z,2.25
2022-11-21T02:27:05.251Z,1.83
2022-11-21T02:29:33.819Z,2.00
2022-11-21T02:32:05.546Z,2.60
2022-11-21T02:34:34.163Z,2.63
2022-11-21T02:37:03.354Z,2.60
2022-11-21T02:39:36.721Z,2.22
2022-11-21T02:42:10.980Z,2.28
2022-11-21T02:44:45.304Z,2.10
2022-11-21T02:47:13.495Z,2.03
2022-11-21T02:49:47.664Z,2.50
2022-11-21T02:52:15.973Z,2.63
2022-11-21T02:54:44.041Z,2.60
2022-11-21T02:57:13.996Z,2.30
2022-11-21T02:59:42.183Z,2.15
2022-11-21T03:02:10.373Z,2.40
2022-11-21T03:04:38.655Z,2.97
2022-11-21T03:07:07.056Z,2.30
2022-11-21T03:09:35.760Z,2.53
2022-11-21T03:12:07.808Z,2.40
2022-11-21T03:14:38.128Z,2.47
2022-11-21T03:17:06.428Z,2.33
2022-11-21T03:19:34.944Z,2.30
2022-11-21T03:22:03.333Z,1.95
2022-11-21T03:24:31.458Z,2.83
2022-11-21T03:26:59.660Z,2.50
2022-11-21T03:29:28.282Z,2.20
2022-11-21T03:31:57.937Z,2.22
2022-11-21T03:34:26.814Z,2.58
2022-11-21T03:36:55.426Z,2.10
2022-11-21T03:39:23.498Z,2.33
2022-11-21T03:41:51.754Z,2.58
2022-11-21T03:44:20.186Z,2.28
2022-11-21T03:46:48.993Z,2.15
2022-11-21T03:49:18.541Z,2.13
2022-11-21T03:51:46.945Z,2.47
2022-11-21T03:54:15.127Z,2.05
2022-11-21T03:56:43.323Z,2.53
2022-11-21T03:59:11.501Z,2.28
2022-11-21T04:01:39.838Z,2.00
2022-11-21T04:04:08.075Z,2.60
2022-11-21T04:06:37.883Z,2.13
2022-11-21T04:09:06.005Z,2.60
2022-11-21T04:11:34.339Z,2.13
2022-11-21T04:14:02.652Z,2.05
2022-11-21T04:16:30.789Z,2.10
2022-11-21T04:18:59.009Z,2.17
2022-11-21T04:21:27.349Z,2.63
2022-11-21T04:23:56.799Z,1.92
2022-11-21T04:26:25.136Z,2.30
2022-11-21T04:28:53.379Z,1.90
2022-11-21T04:31:21.584Z,1.88
2022-11-21T04:33:49.737Z,2.08
2022-11-21T04:36:18.408Z,1.90
2022-11-21T04:38:46.460Z,2.17
2022-11-21T04:41:16.061Z,2.28
2022-11-21T04:43:44.385Z,2.08
2022-11-21T04:46:12.497Z,1.95
2022-11-21T04:48:40.666Z,1.92
2022-11-21T04:51:09.051Z,2.10
2022-11-21T04:53:42.608Z,2.22
2022-11-21T04:56:11.638Z,1.73
2022-11-21T04:58:41.069Z,1.95
2022-11-21T05:01:09.575Z,2.30
2022-11-21T05:03:38.283Z,2.10
2022-11-21T05:06:06.483Z,2.40
2022-11-21T05:08:34.749Z,1.88
2022-11-21T05:11:20.528Z,2.25
2022-11-21T05:13:50.035Z,2.53
2022-11-21T05:16:18.131Z,2.42
2022-11-21T05:18:46.436Z,1.80
2022-11-21T05:21:15.109Z,2.63
2022-11-21T05:23:43.181Z,2.80
2022-11-21T05:26:11.435Z,2.28
2022-11-21T05:28:39.725Z,2.50
2022-11-21T05:31:09.227Z,2.22
2022-11-21T05:33:37.339Z,2.50
2022-11-21T05:36:06.106Z,2.20
2022-11-21T05:38:34.129Z,1.90
2022-11-21T05:41:02.402Z,2.20
2022-11-21T05:43:44.478Z,2.10
2022-11-21T05:46:14.471Z,1.95
2022-11-21T05:48:43.216Z,2.10
2022-11-21T05:51:11.518Z,2.10
2022-11-21T05:53:40.015Z,2.10
2022-11-21T05:56:10.390Z,2.45
2022-11-21T05:58:38.586Z,2.15
2022-11-21T06:01:08.924Z,2.50
2022-11-21T06:03:39.425Z,2.50
2022-11-21T06:06:09.425Z,2.90
2022-11-21T06:08:39.693Z,3.50
2022-11-21T06:11:08.797Z,3.83
2022-11-21T06:13:37.643Z,3.90
2022-11-21T06:16:08.101Z,3.28
2022-11-21T06:18:39.581Z,2.50
2022-11-21T06:21:09.688Z,2.63
2022-11-21T06:23:37.959Z,2.72
2022-11-21T06:26:08.374Z,3.45
2022-11-21T06:28:38.014Z,3.10
2022-11-21T06:31:06.603Z,2.58
2022-11-21T06:33:34.921Z,3.15
2022-11-21T06:36:05.885Z,2.92
2022-11-21T06:38:34.063Z,2.92
2022-11-21T06:41:06.503Z,3.55
2022-11-21T06:43:34.851Z,3.72
2022-11-21T06:46:04.062Z,4.05
2022-11-21T06:48:32.603Z,5.47
2022-11-21T06:51:06.581Z,4.78
2022-11-21T06:53:35.859Z,5.85
2022-11-21T06:56:04.840Z,4.57
2022-11-21T06:58:34.067Z,4.85
2022-11-21T07:01:06.868Z,4.88
2022-11-21T07:03:35.799Z,5.63
2022-11-21T07:06:06.557Z,5.60
2022-11-21T07:08:37.215Z,4.68
2022-11-21T07:13:55.457Z,4.35
2022-11-21T07:16:26.100Z,4.70
2022-11-21T07:18:54.555Z,4.75
2022-11-21T07:21:24.601Z,4.60
2022-11-21T07:23:52.676Z,4.72
2022-11-21T07:26:20.801Z,4.50
2022-11-21T07:28:49.369Z,4.28
2022-11-21T07:31:17.740Z,4.68
2022-11-21T07:33:46.879Z,4.97
2022-11-21T07:36:15.594Z,5.25
2022-11-21T07:38:47.810Z,4.80
2022-11-21T07:41:15.891Z,4.25
2022-11-21T07:43:44.127Z,4.53
2022-11-21T07:46:12.445Z,5.57
2022-11-21T07:48:40.516Z,7.38
2022-11-21T07:51:08.992Z,3.63
2022-11-21T07:53:37.055Z,4.03
2022-11-21T07:56:09.844Z,4.00
2022-11-21T07:58:38.249Z,3.77
2022-11-21T08:01:07.062Z,3.97
2022-11-21T08:03:35.501Z,3.78
2022-11-21T08:06:04.839Z,3.58
2022-11-21T08:08:33.451Z,3.72
2022-11-21T08:11:07.871Z,3.72
2022-11-21T08:13:36.457Z,3.40
2022-11-21T08:16:05.245Z,3.83
2022-11-21T08:18:33.809Z,3.30
2022-11-21T08:21:03.606Z,3.47
2022-11-21T08:23:33.180Z,4.40
2022-11-21T08:26:01.448Z,4.35
2022-11-21T08:28:30.960Z,3.65
2022-11-21T08:30:59.277Z,3.60
2022-11-21T08:33:27.683Z,3.60
2022-11-21T08:35:55.737Z,3.30
2022-11-21T08:38:24.270Z,3.50
2022-11-21T08:41:17.472Z,3.60
2022-11-21T08:43:47.481Z,4.10
2022-11-21T08:46:15.802Z,3.60
2022-11-21T08:48:43.911Z,3.80
2022-11-21T08:51:12.062Z,4.43
2022-11-21T08:53:40.721Z,4.03
2022-11-21T08:56:09.083Z,4.10
2022-11-21T08:58:37.217Z,4.43
2022-11-21T09:01:06.968Z,3.72
2022-11-21T09:03:35.550Z,4.10
2022-11-21T09:06:03.721Z,5.38
2022-11-21T09:08:32.565Z,4.55
2022-11-21T09:11:04.836Z,4.60
2022-11-21T09:13:33.695Z,4.78
2022-11-21T09:16:20.770Z,4.93
2022-11-21T09:18:53.954Z,4.93
2022-11-21T09:21:22.862Z,4.85
2022-11-21T09:23:51.247Z,4.85
2022-11-21T09:26:19.415Z,4.75
2022-11-21T09:28:47.592Z,5.45
2022-11-21T09:31:15.723Z,6.45
2022-11-21T09:33:44.075Z,6.10
2022-11-21T09:36:13.712Z,5.45
2022-11-21T09:38:41.803Z,5.80
2022-11-21T09:41:45.052Z,6.70
2022-11-21T09:44:22.576Z,6.70
2022-11-21T09:46:57.218Z,6.70
2022-11-21T09:49:27.431Z,7.05
2022-11-21T09:51:59.064Z,7.68
2022-11-21T09:54:33.559Z,8.00
2022-11-21T09:57:02.841Z,7.60
2022-11-21T09:59:35.590Z,8.52
2022-11-21T10:02:04.678Z,9.10
2022-11-21T10:04:32.981Z,9.30
2022-11-21T10:07:06.900Z,9.48
2022-11-21T10:09:48.187Z,9.88
2022-11-21T10:12:40.259Z,10.10
2022-11-21T10:15:27.907Z,10.15
2022-11-21T10:18:10.367Z,10.65
2022-11-21T10:20:50.878Z,11.05
2022-11-21T10:23:42.474Z,10.75
2022-11-21T10:26:19.115Z,11.25
2022-11-21T10:28:54.201Z,11.73
2022-11-21T10:31:23.003Z,12.02
2022-11-21T10:33:53.347Z,12.13
2022-11-21T10:36:28.228Z,11.57
2022-11-21T10:39:01.588Z,11.82
2022-11-21T10:41:41.893Z,12.10
2022-11-21T10:44:36.366Z,12.20
2022-11-21T10:47:16.475Z,12.32
2022-11-21T10:49:47.952Z,12.35
2022-11-21T10:52:20.499Z,11.80
2022-11-21T10:55:08.741Z,11.18
2022-11-21T10:57:42.438Z,12.25
2022-11-21T11:03:08.850Z,13.77
2022-11-21T11:05:38.313Z,12.13
2022-11-21T11:08:09.078Z,13.55
2022-11-21T11:10:40.217Z,12.50
2022-11-21T11:13:50.977Z,14.20
2022-11-21T11:16:22.287Z,15.95
2022-11-21T11:18:58.598Z,15.00
2022-11-21T11:21:28.525Z,14.52
2022-11-21T11:24:21.251Z,14.25
2022-11-21T11:26:58.595Z,12.82
2022-11-21T11:29:30.440Z,13.25
2022-11-21T11:32:04.354Z,12.38
2022-11-21T11:37:14.407Z,11.48
2022-11-21T11:39:55.070Z,12.43
2022-11-21T11:43:27.385Z,11.90
2022-11-21T11:46:47.270Z,11.55
2022-11-21T11:49:21.481Z,10.20
2022-11-21T11:51:55.672Z,11.32
2022-11-21T11:54:28.466Z,10.07
2022-11-21T11:56:58.567Z,10.80
2022-11-21T11:59:33.947Z,11.15
2022-11-21T12:02:11.606Z,13.13
2022-11-21T12:04:47.156Z,11.02
2022-11-21T12:10:18.662Z,11.82
2022-11-21T12:12:50.207Z,10.50
2022-11-21T12:15:41.640Z,11.82
2022-11-21T12:18:21.420Z,10.93
2022-11-21T12:20:59.252Z,12.15
2022-11-21T12:23:31.877Z,11.45
2022-11-21T12:26:11.916Z,11.55
2022-11-21T12:28:55.342Z,12.32
2022-11-21T12:31:32.748Z,10.40
2022-11-21T12:34:14.480Z,10.23
2022-11-21T12:36:47.347Z,10.52
2022-11-21T12:39:48.166Z,10.75
2022-11-21T12:42:49.709Z,10.07
2022-11-21T12:45:32.314Z,8.98
2022-11-21T12:48:38.907Z,9.00
2022-11-21T12:51:58.009Z,9.52
2022-11-21T12:54:43.731Z,9.43
2022-11-21T12:57:14.047Z,8.80
2022-11-21T12:59:52.092Z,8.77
2022-11-21T13:02:31.298Z,8.45
2022-11-21T13:05:02.626Z,10.10
2022-11-21T13:07:32.516Z,8.82
2022-11-21T13:10:02.744Z,8.48
2022-11-21T13:12:41.301Z,8.95
2022-11-21T13:15:22.968Z,8.55
2022-11-21T13:17:56.017Z,8.65
2022-11-21T13:20:31.810Z,7.75
2022-11-21T13:23:01.551Z,8.30
2022-11-21T13:25:48.241Z,7.68
2022-11-21T13:28:36.200Z,7.00
2022-11-21T13:31:22.076Z,7.35
2022-11-21T13:33:52.802Z,6.43
2022-11-21T13:36:52.201Z,6.85
2022-11-21T13:39:32.421Z,7.18
2022-11-21T13:42:20.822Z,6.43
2022-11-21T13:44:49.784Z,7.15
2022-11-21T13:47:55.681Z,7.40
2022-11-21T13:50:47.070Z,6.00
2022-11-21T13:53:39.862Z,8.13
2022-11-21T13:56:19.560Z,6.60
2022-11-21T13:58:59.153Z,8.15
2022-11-21T14:01:44.995Z,6.32
2022-11-21T14:04:43.240Z,7.63
2022-11-21T14:07:30.248Z,8.77
2022-11-21T14:10:02.677Z,11.57
2022-11-21T14:12:36.270Z,9.90
2022-11-21T14:15:26.043Z,8.75
2022-11-21T14:17:57.065Z,7.40
2022-11-21T14:20:28.294Z,6.70
2022-11-21T14:23:00.117Z,6.03
2022-11-21T14:25:36.280Z,5.80
2022-11-21T14:28:07.461Z,4.93
2022-11-21T14:30:38.289Z,4.80
2022-11-21T14:33:26.199Z,5.20
2022-11-21T14:35:57.131Z,4.65
2022-11-21T14:38:26.285Z,4.95
2022-11-21T14:41:33.030Z,4.70
2022-11-21T14:44:15.723Z,4.50
2022-11-21T14:46:47.283Z,5.20
2022-11-21T14:49:29.445Z,4.78
2022-11-21T14:52:19.621Z,4.43
2022-11-21T14:55:22.175Z,5.18
2022-11-21T14:57:43.582Z,5.05
2022-11-21T15:00:43.290Z,4.95
2022-11-21T15:03:06.099Z,4.60
2022-11-21T15:09:14.814Z,4.07
2022-11-21T15:11:14.693Z,4.63
2022-11-21T15:16:35.828Z,4.63
2022-11-21T15:19:10.341Z,4.43
2022-11-21T15:21:46.672Z,5.18
2022-11-21T15:24:20.192Z,4.95
2022-11-21T15:26:48.400Z,5.07
2022-11-21T15:29:23.219Z,5.00
2022-11-21T15:32:14.075Z,4.47
2022-11-21T15:34:44.882Z,4.32
2022-11-21T15:37:17.458Z,4.43
2022-11-21T15:39:48.313Z,5.13
2022-11-21T15:42:30.326Z,4.45
2022-11-21T15:45:01.377Z,4.90
2022-11-21T15:47:29.705Z,4.82
2022-11-21T15:49:57.767Z,4.80
2022-11-21T15:52:26.401Z,4.80
2022-11-21T15:54:54.511Z,4.95
2022-11-21T15:57:22.919Z,4.65
2022-11-21T15:59:53.231Z,4.03
2022-11-21T16:02:22.834Z,4.45
2022-11-21T16:04:50.901Z,4.15
2022-11-21T16:07:19.518Z,4.20
2022-11-21T16:09:47.975Z,4.47
2022-11-21T16:12:16.159Z,4.25
2022-11-21T16:14:44.742Z,5.03
2022-11-21T16:17:12.888Z,4.75
2022-11-21T16:19:42.713Z,4.07
2022-11-21T16:22:11.330Z,3.72
2022-11-21T16:24:39.396Z,3.78
2022-11-21T16:27:07.544Z,4.15
2022-11-21T16:29:36.407Z,4.45
2022-11-21T16:32:04.562Z,4.00
2022-11-21T16:34:33.178Z,3.40
2022-11-21T16:37:07.312Z,3.10
2022-11-21T16:39:36.034Z,4.63
2022-11-21T16:42:05.027Z,3.65
2022-11-21T16:44:33.159Z,3.92
2022-11-21T16:47:06.782Z,3.60
2022-11-21T16:49:36.873Z,3.20
2022-11-21T16:52:06.500Z,4.15
2022-11-21T16:54:34.587Z,3.90
2022-11-21T16:57:03.405Z,3.92
2022-11-21T16:59:32.423Z,3.13
2022-11-21T17:02:00.907Z,3.67
2022-11-21T17:04:31.173Z,4.25
2022-11-21T17:06:59.514Z,4.07
2022-11-21T17:09:29.077Z,4.03
2022-11-21T17:11:58.842Z,3.58
2022-11-21T17:14:27.470Z,4.10
2022-11-21T17:16:55.861Z,3.97
2022-11-21T17:19:24.242Z,3.50
2022-11-21T17:21:53.512Z,4.38
2022-11-21T17:24:21.891Z,4.38
2022-11-21T17:26:51.831Z,4.30
2022-11-21T17:29:19.909Z,4.18
2022-11-21T17:31:50.620Z,3.85
2022-11-21T17:34:19.212Z,3.92
2022-11-21T17:36:47.365Z,4.00
2022-11-21T17:39:17.992Z,4.05
2022-11-21T17:41:46.544Z,4.70
2022-11-21T17:44:16.966Z,4.65
2022-11-21T17:46:45.056Z,4.70
2022-11-21T17:49:14.053Z,5.60
2022-11-21T17:51:42.407Z,5.70
2022-11-21T17:54:11.179Z,5.22
2022-11-21T17:56:45.432Z,5.13
2022-11-21T17:59:16.944Z,4.97
2022-11-21T18:01:46.313Z,4.15
2022-11-21T18:04:17.673Z,4.70
2022-11-21T18:06:47.182Z,4.38
2022-11-21T18:09:15.622Z,4.18
2022-11-21T18:11:43.788Z,4.43
2022-11-21T18:14:13.426Z,5.30
2022-11-21T18:16:50.706Z,4.82
2022-11-21T18:19:21.163Z,4.30
2022-11-21T18:21:49.655Z,5.03
2022-11-21T18:24:17.708Z,4.55
2022-11-21T18:26:47.115Z,5.45
2022-11-21T18:32:07.048Z,4.57
2022-11-21T18:34:35.367Z,4.80
2022-11-21T18:37:03.565Z,5.03
2022-11-21T18:39:32.099Z,5.35
2022-11-21T18:42:00.614Z,6.40
2022-11-21T18:44:28.931Z,6.68
2022-11-21T18:46:57.173Z,7.75
2022-11-21T18:49:26.821Z,6.95
2022-11-21T18:51:55.226Z,6.55
2022-11-21T18:54:23.393Z,7.72
2022-11-21T18:56:51.678Z,5.60
2022-11-21T18:59:19.782Z,7.72
2022-11-21T19:01:48.275Z,6.05
2022-11-21T19:04:17.187Z,6.43
2022-11-21T19:06:46.795Z,5.72
2022-11-21T19:09:15.112Z,6.93
2022-11-21T19:11:43.596Z,6.22
2022-11-21T19:14:11.987Z,4.90
2022-11-21T19:16:40.618Z,5.97
2022-11-21T19:22:01.101Z,5.60
2022-11-21T19:24:29.501Z,6.03
2022-11-21T19:26:57.991Z,5.65
2022-11-21T19:29:26.224Z,5.32
2022-11-21T19:31:56.062Z,5.60
2022-11-21T19:34:24.234Z,5.95
2022-11-21T19:36:53.077Z,6.00
2022-11-21T19:39:22.607Z,5.93
2022-11-21T19:41:51.387Z,6.25
2022-11-21T19:44:19.883Z,5.88
2022-11-21T19:46:49.789Z,5.60
2022-11-21T19:49:19.369Z,5.85
2022-11-21T19:51:47.617Z,5.45
2022-11-21T19:54:16.987Z,5.57
2022-11-21T19:56:46.720Z,5.10
2022-11-21T19:59:15.017Z,5.95
2022-11-21T20:01:46.900Z,4.75
2022-11-21T20:04:17.898Z,5.70
2022-11-21T20:06:46.335Z,4.82
2022-11-21T20:09:16.548Z,4.88
2022-11-21T20:11:47.814Z,5.32
2022-11-21T20:14:21.514Z,5.18
2022-11-21T20:16:53.067Z,4.50
2022-11-21T20:19:24.072Z,4.80
2022-11-21T20:21:53.015Z,5.60
2022-11-21T20:24:21.269Z,5.18
2022-11-21T20:26:50.839Z,4.53
2022-11-21T20:29:19.104Z,4.07
2022-11-21T20:31:48.591Z,4.07
2022-11-21T20:34:17.192Z,4.65
2022-11-21T20:36:46.654Z,4.40
2022-11-21T20:39:16.491Z,4.00
2022-11-21T20:41:45.579Z,4.65
2022-11-21T20:47:05.872Z,4.70
2022-11-21T20:49:35.555Z,4.88
2022-11-21T20:54:51.988Z,5.10
2022-11-21T20:57:20.237Z,5.00
2022-11-21T20:59:49.691Z,5.15
2022-11-21T21:02:18.183Z,5.40
2022-11-21T21:04:46.302Z,5.30
2022-11-21T21:07:14.725Z,4.97
2022-11-21T21:09:43.371Z,4.82
2022-11-21T21:12:11.531Z,4.95
2022-11-21T21:14:39.638Z,4.82
2022-11-21T21:17:09.584Z,4.90
2022-11-21T21:19:37.649Z,4.70
2022-11-21T21:22:06.028Z,4.70
2022-11-21T21:24:34.311Z,4.63
2022-11-21T21:27:02.416Z,4.80
2022-11-21T21:29:30.732Z,4.20
2022-11-21T21:31:59.386Z,5.20
2022-11-21T21:34:29.055Z,4.43
2022-11-21T21:36:57.434Z,4.43
2022-11-21T21:39:26.410Z,5.30
2022-11-21T21:41:54.760Z,4.85
2022-11-21T21:44:27.092Z,4.50
2022-11-21T21:46:58.433Z,4.22
2022-11-21T21:49:27.940Z,3.90
2022-11-21T21:51:56.058Z,4.07
2022-11-21T21:54:24.353Z,3.60
2022-11-21T21:56:52.543Z,4.07
2022-11-21T21:59:20.607Z,3.50
2022-11-21T22:01:49.466Z,3.78
2022-11-21T22:04:17.736Z,4.10
2022-11-21T22:06:47.240Z,4.10
2022-11-21T22:09:15.503Z,3.63
2022-11-21T22:11:43.718Z,3.72
2022-11-21T22:14:14.304Z,3.28
2022-11-21T22:16:43.898Z,3.28
2022-11-21T22:19:12.043Z,3.80
2022-11-21T22:21:40.600Z,3.83
2022-11-21T22:24:30.516Z,3.55
2022-11-21T22:26:58.734Z,3.08
2022-11-21T22:29:27.152Z,3.30
2022-11-21T22:31:55.373Z,4.03
2022-11-21T22:34:23.786Z,4.07
2022-11-21T22:36:52.087Z,3.75
2022-11-21T22:39:21.600Z,4.32
2022-11-21T22:41:49.738Z,3.38
2022-11-21T22:44:19.243Z,4.07
2022-11-21T22:46:47.320Z,3.88
2022-11-21T22:49:15.508Z,3.60
2022-11-21T22:51:45.532Z,4.38
2022-11-21T22:54:14.017Z,4.20
2022-11-21T22:56:44.132Z,3.97
2022-11-21T22:59:14.302Z,3.58
2022-11-21T23:01:42.594Z,3.92
2022-11-21T23:04:14.709Z,3.83
2022-11-21T23:06:45.680Z,3.88
2022-11-21T23:09:13.910Z,3.88
2022-11-21T23:11:43.439Z,3.97
2022-11-21T23:14:11.718Z,3.90
2022-11-21T23:16:39.979Z,4.28
2022-11-21T23:19:08.611Z,3.75
2022-11-21T23:21:36.852Z,3.47
2022-11-21T23:24:05.655Z,3.70
2022-11-21T23:26:33.847Z,3.80
2022-11-21T23:29:08.327Z,3.95
2022-11-21T23:31:37.427Z,4.45
2022-11-21T23:34:05.707Z,3.58
2022-11-21T23:36:33.818Z,4.53
2022-11-21T23:39:02.167Z,4.32
2022-11-21T23:41:30.504Z,4.30
2022-11-21T23:43:59.881Z,4.03
2022-11-21T23:46:30.626Z,4.05
2022-11-21T23:48:58.791Z,3.47
2022-11-21T23:51:26.961Z,3.45
2022-11-21T23:53:55.159Z,4.05
2022-11-21T23:56:23.515Z,3.75
2022-11-21T23:58:51.670Z,3.60
